Time;durP1;ratioP1;P1;durP2;ratioP2;P2;SDS_P1;SDS_P2;PMS_P1;PMS_P2;Temp;Humidity;BMP_temperature;BMP_pressure;BME280_temperature;BME280_humidity;BME280_pressure;Samples;Min_cycle;Max_cycle;Signal;HPM_P1;HPM_P2
2022/12/04 00:01:26;;;;;;;21.60;12.87;;;0.60;99.90;;;;;;6303941;22;20495;-75
2022/12/04 00:03:54;;;;;;;23.10;12.60;;;0.60;99.90;;;;;;6301120;22;20419;-75
2022/12/04 00:06:22;;;;;;;19.60;10.40;;;0.70;99.90;;;;;;6303126;22;20476;-75
2022/12/04 00:08:50;;;;;;;30.07;13.10;;;0.70;99.90;;;;;;6309510;22;20412;-77
2022/12/04 00:13:50;;;;;;;26.43;12.13;;;0.80;99.90;;;;;;6289581;22;20457;-79
2022/12/04 00:16:23;;;;;;;24.00;13.03;;;0.80;99.90;;;;;;6299340;22;20472;-79
2022/12/04 00:22:41;;;;;;;20.63;11.67;;;0.60;99.90;;;;;;6301920;22;20413;-81
2022/12/04 00:25:18;;;;;;;28.60;12.07;;;0.70;99.90;;;;;;6294070;22;20428;-80
2022/12/04 00:27:45;;;;;;;24.67;12.30;;;0.80;99.90;;;;;;6287641;22;20448;-80
2022/12/04 00:30:14;;;;;;;23.73;10.87;;;0.80;99.90;;;;;;6285500;22;20467;-80
2022/12/04 00:32:41;;;;;;;17.70;9.80;;;0.70;99.90;;;;;;6286936;22;20435;-80
2022/12/04 00:35:09;;;;;;;25.67;12.77;;;0.80;99.90;;;;;;6282892;22;20416;-81
2022/12/04 00:37:36;;;;;;;24.40;12.80;;;0.80;99.90;;;;;;6283126;22;20412;-80
2022/12/04 00:40:03;;;;;;;26.10;12.33;;;0.80;99.90;;;;;;6284624;22;20437;-80
2022/12/04 00:42:30;;;;;;;22.10;12.47;;;0.70;99.90;;;;;;6286675;22;20969;-80
2022/12/04 00:44:57;;;;;;;18.83;10.20;;;1.50;99.90;;;;;;6285188;22;20479;-80
2022/12/04 00:47:25;;;;;;;20.03;10.67;;;0.80;99.90;;;;;;6282429;22;20409;-80
2022/12/04 00:49:52;;;;;;;20.70;12.07;;;0.80;99.90;;;;;;6286363;22;20591;-80
2022/12/04 00:52:19;;;;;;;26.67;11.80;;;0.80;99.90;;;;;;6288221;22;20522;-79
2022/12/04 00:54:46;;;;;;;24.37;13.37;;;0.80;99.90;;;;;;6289755;22;20638;-80
2022/12/04 00:57:13;;;;;;;24.10;11.60;;;0.80;99.90;;;;;;6290444;22;20428;-80
2022/12/04 00:59:40;;;;;;;23.50;12.10;;;0.60;99.90;;;;;;6290915;22;20472;-81
2022/12/04 01:02:07;;;;;;;25.30;12.57;;;0.80;99.90;;;;;;6290592;22;20404;-80
2022/12/04 01:04:35;;;;;;;20.80;12.50;;;0.90;99.90;;;;;;6292866;22;20432;-79
2022/12/04 01:07:02;;;;;;;23.07;11.77;;;0.80;99.90;;;;;;6292719;22;20416;-80
2022/12/04 01:09:29;;;;;;;24.30;11.60;;;1.60;99.90;;;;;;6300793;22;20432;-81
2022/12/04 01:11:56;;;;;;;25.30;12.53;;;1.00;99.90;;;;;;6316649;22;20440;-80
2022/12/04 01:14:23;;;;;;;29.27;13.13;;;0.80;99.90;;;;;;6318147;22;20400;-81
2022/12/04 01:16:50;;;;;;;20.93;10.83;;;0.60;99.90;;;;;;6319603;22;20400;-80
2022/12/04 01:19:17;;;;;;;21.97;11.47;;;0.90;99.90;;;;;;6316674;22;20905;-80
2022/12/04 01:21:45;;;;;;;21.07;11.83;;;0.70;99.90;;;;;;6317345;22;20412;-80
2022/12/04 01:24:12;;;;;;;21.60;10.07;;;0.70;99.90;;;;;;6317454;22;20397;-80
2022/12/04 01:26:39;;;;;;;22.47;11.57;;;0.80;99.90;;;;;;6320854;22;20420;-79
2022/12/04 01:29:06;;;;;;;22.83;10.47;;;0.80;99.90;;;;;;6320721;22;20426;-79
2022/12/04 01:31:33;;;;;;;16.70;10.27;;;0.80;99.90;;;;;;6320744;22;20451;-79
2022/12/04 01:34:00;;;;;;;23.17;12.20;;;0.80;99.90;;;;;;6321543;22;20881;-79
2022/12/04 01:36:30;;;;;;;18.60;9.70;;;0.80;99.90;;;;;;6322416;22;20438;-79
2022/12/04 01:38:58;;;;;;;23.40;9.93;;;1.50;99.90;;;;;;6323612;22;20412;-79
2022/12/04 01:41:28;;;;;;;22.80;13.53;;;0.80;99.90;;;;;;6320766;22;20411;-79
2022/12/04 01:44:13;;;;;;;22.57;11.80;;;0.80;99.90;;;;;;6321627;22;20408;-79
2022/12/04 01:46:41;;;;;;;21.10;11.20;;;2.50;99.90;;;;;;6321197;22;20400;-80
2022/12/04 01:49:12;;;;;;;21.10;9.97;;;0.80;99.90;;;;;;6317727;22;20400;-80
2022/12/04 01:51:42;;;;;;;20.93;10.37;;;1.50;99.90;;;;;;6316008;22;20423;-80
2022/12/04 01:54:15;;;;;;;19.23;11.13;;;0.70;99.90;;;;;;6313671;22;20435;-80
2022/12/04 01:56:46;;;;;;;18.50;10.17;;;0.70;99.90;;;;;;6316490;22;20415;-80
2022/12/04 01:59:17;;;;;;;23.53;10.63;;;1.40;99.90;;;;;;6314422;22;20402;-80
2022/12/04 02:01:49;;;;;;;21.27;10.17;;;0.60;99.90;;;;;;6314107;22;20411;-80
2022/12/04 02:04:16;;;;;;;19.73;10.63;;;0.70;99.90;;;;;;6314365;22;20393;-80
2022/12/04 02:06:43;;;;;;;21.70;11.13;;;0.60;99.90;;;;;;6317111;22;20897;-80
2022/12/04 02:09:12;;;;;;;21.37;10.80;;;0.60;99.90;;;;;;6317098;22;20411;-80
2022/12/04 02:11:46;;;;;;;21.50;11.80;;;0.70;99.90;;;;;;6315039;22;20454;-80
2022/12/04 02:14:25;;;;;;;18.20;9.90;;;0.70;99.90;;;;;;6314324;22;20393;-80
2022/12/04 02:17:00;;;;;;;19.50;10.17;;;0.70;99.90;;;;;;6315753;22;20884;-80
2022/12/04 02:19:54;;;;;;;20.93;11.33;;;0.60;99.90;;;;;;6317191;22;20423;-81
2022/12/04 02:22:37;;;;;;;17.53;10.57;;;0.50;99.90;;;;;;6319201;22;20399;-80
2022/12/04 02:25:13;;;;;;;21.17;10.60;;;0.60;99.90;;;;;;6318785;22;20387;-79
2022/12/04 02:28:08;;;;;;;17.53;10.93;;;0.60;99.90;;;;;;6318814;22;20495;-80
2022/12/04 02:30:39;;;;;;;17.77;10.40;;;0.60;99.90;;;;;;6318459;22;20749;-80
2022/12/04 02:33:16;;;;;;;20.97;11.47;;;0.70;99.90;;;;;;6319299;22;20400;-79
2022/12/04 02:35:47;;;;;;;13.87;9.17;;;0.70;99.90;;;;;;6319571;22;20395;-80
2022/12/04 02:38:21;;;;;;;15.00;8.93;;;0.70;99.90;;;;;;6318401;22;20720;-80
2022/12/04 02:40:54;;;;;;;14.63;8.77;;;0.60;99.90;;;;;;6317636;22;20948;-80
2022/12/04 02:43:26;;;;;;;15.70;8.93;;;0.60;99.90;;;;;;6316764;22;20682;-80
2022/12/04 02:45:59;;;;;;;16.80;9.90;;;0.60;99.90;;;;;;6314456;22;20395;-80
2022/12/04 02:48:28;;;;;;;19.33;10.20;;;0.60;99.90;;;;;;6315500;22;20604;-80
2022/12/04 02:50:58;;;;;;;17.50;8.50;;;0.50;99.90;;;;;;6320830;22;20443;-80
2022/12/04 02:53:29;;;;;;;19.90;9.83;;;0.50;99.90;;;;;;6321948;22;20396;-80
2022/12/04 02:56:00;;;;;;;19.90;9.77;;;0.60;99.90;;;;;;6320406;22;20500;-79
2022/12/04 02:58:31;;;;;;;20.30;10.83;;;0.50;99.90;;;;;;6320476;22;20385;-79
2022/12/04 03:01:00;;;;;;;16.40;10.67;;;0.50;99.90;;;;;;6319378;22;20425;-80
2022/12/04 03:03:31;;;;;;;15.20;9.30;;;0.50;99.90;;;;;;6316639;22;20424;-80
2022/12/04 03:06:02;;;;;;;20.40;10.30;;;0.60;99.90;;;;;;6317052;22;20391;-80
2022/12/04 03:08:34;;;;;;;22.23;10.73;;;0.60;99.90;;;;;;6316070;22;20418;-80
2022/12/04 03:11:02;;;;;;;18.23;11.33;;;0.60;99.90;;;;;;6314719;22;21019;-79
2022/12/04 03:13:36;;;;;;;20.30;10.27;;;0.60;99.90;;;;;;6316988;22;20428;-79
2022/12/04 03:16:10;;;;;;;16.40;10.40;;;0.60;99.90;;;;;;6318086;22;20792;-79
2022/12/04 03:18:42;;;;;;;24.57;10.93;;;0.70;99.90;;;;;;6318738;22;20381;-78
2022/12/04 03:21:12;;;;;;;19.10;11.40;;;0.20;99.90;;;;;;6319553;22;20388;-80
2022/12/04 03:23:44;;;;;;;19.77;11.40;;;0.60;99.90;;;;;;6318096;22;20400;-80
2022/12/04 03:26:16;;;;;;;21.80;10.53;;;0.10;99.90;;;;;;6318432;22;20384;-79
2022/12/04 03:28:52;;;;;;;21.40;12.23;;;0.70;99.90;;;;;;6317766;22;20384;-79
2022/12/04 03:31:26;;;;;;;20.13;10.17;;;0.70;99.90;;;;;;6316679;22;20435;-80
2022/12/04 03:33:57;;;;;;;19.53;10.70;;;0.70;99.90;;;;;;6318426;22;20393;-79
2022/12/04 03:36:29;;;;;;;16.77;8.80;;;0.70;99.90;;;;;;6317704;22;20982;-79
2022/12/04 03:39:00;;;;;;;21.23;9.60;;;0.70;99.90;;;;;;6316908;22;20396;-79
2022/12/04 03:41:31;;;;;;;16.43;9.40;;;0.50;99.90;;;;;;6315322;22;20400;-78
2022/12/04 03:44:06;;;;;;;19.37;10.03;;;0.60;99.90;;;;;;6316053;22;20896;-79
2022/12/04 03:49:23;;;;;;;18.83;9.63;;;0.70;99.90;;;;;;6314630;22;20423;-79
2022/12/04 03:51:56;;;;;;;21.50;10.13;;;1.20;99.90;;;;;;6316653;22;20465;-78
2022/12/04 03:54:39;;;;;;;16.83;9.20;;;0.40;99.90;;;;;;6317945;22;20412;-79
2022/12/04 04:40:37;;;;;;;16.53;9.27;;;0.60;99.90;;;;;;6261102;22;20482;-79
2022/12/04 05:18:22;;;;;;;16.57;9.80;;;0.80;99.90;;;;;;6290888;22;20440;-79
2022/12/04 05:21:30;;;;;;;13.70;9.00;;;1.10;99.90;;;;;;6301092;22;20432;-80
2022/12/04 06:19:26;;;;;;;22.93;12.43;;;0.50;99.90;;;;;;6271340;22;20456;-75
2022/12/04 06:21:53;;;;;;;23.60;12.13;;;0.50;99.90;;;;;;6277253;22;20417;-77
2022/12/04 06:24:22;;;;;;;25.90;12.60;;;0.60;99.90;;;;;;6278209;22;20972;-75
2022/12/04 06:26:56;;;;;;;21.67;11.50;;;0.70;99.90;;;;;;6276398;22;20480;-76
2022/12/04 06:29:23;;;;;;;24.07;10.07;;;0.70;99.90;;;;;;6272791;22;20416;-74
2022/12/04 06:31:50;;;;;;;20.97;11.93;;;0.70;99.90;;;;;;6273457;22;20884;-74
2022/12/04 06:34:17;;;;;;;20.70;11.00;;;0.70;99.90;;;;;;6272567;22;20427;-74
2022/12/04 06:36:45;;;;;;;20.80;11.30;;;0.70;99.90;;;;;;6273423;22;20437;-76
2022/12/04 06:39:12;;;;;;;22.60;11.10;;;1.40;99.90;;;;;;6273111;22;20431;-74
2022/12/04 06:41:39;;;;;;;37.10;17.27;;;0.70;99.90;;;;;;6274017;22;20429;-75
2022/12/04 06:44:06;;;;;;;17.97;11.13;;;1.30;99.90;;;;;;6274506;22;20433;-77
2022/12/04 06:46:35;;;;;;;33.70;20.17;;;0.70;99.90;;;;;;6274872;22;20405;-74
2022/12/04 06:49:02;;;;;;;20.07;12.20;;;0.70;99.90;;;;;;6272856;22;20408;-74
2022/12/04 06:51:32;;;;;;;23.03;11.20;;;0.80;99.90;;;;;;6273878;22;20405;-73
2022/12/04 06:54:09;;;;;;;24.70;12.37;;;1.30;99.90;;;;;;6274373;22;20793;-74
2022/12/04 06:56:36;;;;;;;21.50;10.77;;;0.80;99.90;;;;;;6273749;22;20420;-77
2022/12/04 06:59:04;;;;;;;24.10;11.80;;;0.80;99.90;;;;;;6273258;22;20911;-76
2022/12/04 07:01:33;;;;;;;20.70;11.20;;;0.70;99.90;;;;;;6274396;22;20888;-76
2022/12/04 07:04:02;;;;;;;17.50;10.17;;;0.80;99.90;;;;;;6274011;22;20423;-73
2022/12/04 07:06:31;;;;;;;20.33;11.40;;;0.80;99.90;;;;;;6274554;22;20413;-74
2022/12/04 07:09:10;;;;;;;24.90;13.03;;;0.80;99.90;;;;;;6275677;22;20919;-74
2022/12/04 07:11:37;;;;;;;21.23;12.57;;;0.80;99.90;;;;;;6306170;22;20730;-73
2022/12/04 07:14:04;;;;;;;21.00;12.17;;;0.90;99.90;;;;;;6308450;22;20412;-76
2022/12/04 07:16:31;;;;;;;21.20;11.10;;;0.90;99.90;;;;;;6307318;22;20408;-74
2022/12/04 07:18:58;;;;;;;26.03;12.20;;;0.90;99.90;;;;;;6303156;22;20993;-74
2022/12/04 07:21:27;;;;;;;22.90;10.53;;;0.80;99.90;;;;;;6306770;22;20448;-74
2022/12/04 07:23:56;;;;;;;27.67;13.07;;;0.90;99.90;;;;;;6307316;22;20416;-75
2022/12/04 07:26:27;;;;;;;33.20;13.23;;;1.00;99.90;;;;;;6307976;22;20435;-74
2022/12/04 07:28:55;;;;;;;22.57;10.23;;;0.90;99.90;;;;;;6304202;22;20834;-73
2022/12/04 07:31:24;;;;;;;23.47;12.20;;;0.90;99.90;;;;;;6307066;22;20745;-74
2022/12/04 07:33:52;;;;;;;23.80;11.60;;;0.90;99.90;;;;;;6308029;22;20416;-74
2022/12/04 07:36:25;;;;;;;19.57;10.53;;;0.50;99.90;;;;;;6306316;22;20404;-75
2022/12/04 07:38:54;;;;;;;18.77;10.67;;;0.90;99.90;;;;;;6308754;22;20393;-75
2022/12/04 07:41:21;;;;;;;22.80;11.50;;;0.80;99.90;;;;;;6309736;22;20462;-75
2022/12/04 07:43:49;;;;;;;19.60;10.53;;;0.90;99.90;;;;;;6310728;22;20794;-78
2022/12/04 07:46:19;;;;;;;19.40;9.73;;;1.00;99.90;;;;;;6310966;22;20407;-78
2022/12/04 07:48:46;;;;;;;18.93;9.90;;;1.00;99.90;;;;;;6311222;22;20404;-76
2022/12/04 07:51:21;;;;;;;21.17;12.20;;;1.00;99.90;;;;;;6306557;22;20408;-76
2022/12/04 07:53:49;;;;;;;23.33;10.37;;;0.90;99.90;;;;;;6302169;22;20432;-75
2022/12/04 07:56:17;;;;;;;19.07;10.60;;;0.80;99.90;;;;;;6302356;22;20405;-75
2022/12/04 07:58:44;;;;;;;22.10;10.40;;;0.90;99.90;;;;;;6303587;22;20470;-74
2022/12/04 08:01:16;;;;;;;16.97;9.60;;;1.00;99.90;;;;;;6274714;22;20415;-74
2022/12/04 08:03:45;;;;;;;13.93;8.70;;;1.10;99.90;;;;;;6303907;22;20385;-75
2022/12/04 08:06:12;;;;;;;23.57;11.43;;;1.10;99.90;;;;;;6304592;22;20452;-77
2022/12/04 08:08:44;;;;;;;23.50;11.03;;;1.20;99.90;;;;;;6303288;22;20408;-75
2022/12/04 08:11:14;;;;;;;26.10;11.67;;;1.10;99.90;;;;;;6301246;22;20462;-75
2022/12/04 08:13:40;;;;;;;18.70;12.40;;;1.10;99.90;;;;;;6299962;22;20451;-75
2022/12/04 08:16:10;;;;;;;21.57;10.50;;;1.10;99.90;;;;;;6302324;22;20435;-74
2022/12/04 08:18:38;;;;;;;19.50;10.20;;;0.90;99.90;;;;;;6302255;22;20472;-75
2022/12/04 08:21:06;;;;;;;23.10;12.43;;;1.10;99.90;;;;;;6302877;22;20471;-74
2022/12/04 08:23:34;;;;;;;25.23;11.50;;;1.00;99.90;;;;;;6304454;22;21027;-75
2022/12/04 08:26:01;;;;;;;23.30;11.30;;;1.00;99.90;;;;;;6304017;22;20388;-76
2022/12/04 08:28:29;;;;;;;22.60;11.23;;;1.10;99.90;;;;;;6303760;22;20400;-75
2022/12/04 08:31:01;;;;;;;25.90;15.17;;;1.20;99.90;;;;;;6304180;22;20426;-75
2022/12/04 08:33:28;;;;;;;23.43;12.33;;;1.20;99.90;;;;;;6303706;22;20432;-76
2022/12/04 08:36:05;;;;;;;27.30;12.70;;;1.10;99.90;;;;;;6304119;22;20412;-75
2022/12/04 08:38:32;;;;;;;21.37;10.80;;;1.20;99.90;;;;;;6304028;22;20442;-75
2022/12/04 08:41:00;;;;;;;23.10;12.50;;;1.70;99.90;;;;;;6303815;22;20412;-75
2022/12/04 08:43:27;;;;;;;19.50;11.80;;;1.40;99.90;;;;;;6304324;22;20403;-75
2022/12/04 08:45:56;;;;;;;27.93;12.63;;;1.50;99.90;;;;;;6304424;22;20427;-74
2022/12/04 08:48:23;;;;;;;24.30;12.90;;;1.30;99.90;;;;;;6302734;22;20738;-74
2022/12/04 08:50:50;;;;;;;24.47;11.77;;;1.30;99.90;;;;;;6303208;22;20499;-74
2022/12/04 08:53:20;;;;;;;22.50;11.87;;;1.40;99.90;;;;;;6304121;22;20825;-75
2022/12/04 08:55:47;;;;;;;20.47;11.90;;;1.40;99.90;;;;;;6303832;22;20409;-75
2022/12/04 08:58:14;;;;;;;22.73;11.83;;;1.40;99.90;;;;;;6303495;22;20416;-75
2022/12/04 09:00:41;;;;;;;22.57;11.70;;;1.30;99.90;;;;;;6303006;22;20500;-75
2022/12/04 09:03:09;;;;;;;24.13;12.13;;;1.40;99.90;;;;;;6302965;22;20436;-75
2022/12/04 09:05:36;;;;;;;25.20;12.13;;;1.50;99.90;;;;;;6302114;22;20436;-75
2022/12/04 09:08:04;;;;;;;25.10;12.40;;;1.80;99.90;;;;;;6302291;22;20444;-75
2022/12/04 09:10:34;;;;;;;22.40;12.00;;;1.60;99.90;;;;;;6302428;22;20956;-76
2022/12/04 09:13:01;;;;;;;20.33;12.10;;;1.60;99.90;;;;;;6304635;22;20467;-76
2022/12/04 09:15:28;;;;;;;23.93;13.40;;;1.70;99.90;;;;;;6303622;22;20408;-74
2022/12/04 09:17:55;;;;;;;25.43;13.40;;;1.70;99.90;;;;;;6302016;22;20435;-75
2022/12/04 09:20:31;;;;;;;26.43;12.77;;;1.50;99.90;;;;;;6302268;22;20436;-75
2022/12/04 09:22:58;;;;;;;35.73;15.83;;;1.90;99.90;;;;;;6302158;22;20798;-75
2022/12/04 09:25:25;;;;;;;20.63;13.20;;;1.80;99.90;;;;;;6302744;22;20416;-75
2022/12/04 09:27:53;;;;;;;20.63;11.87;;;1.90;99.90;;;;;;6302393;22;20442;-75
2022/12/04 09:30:20;;;;;;;17.50;11.60;;;1.90;99.90;;;;;;6303892;22;20432;-75
2022/12/04 09:32:47;;;;;;;20.97;11.80;;;1.90;99.90;;;;;;6304047;22;20435;-76
2022/12/04 09:35:14;;;;;;;21.80;11.37;;;1.90;99.90;;;;;;6302563;22;20415;-75
2022/12/04 09:37:49;;;;;;;22.17;12.13;;;1.50;99.90;;;;;;6302432;22;20432;-75
2022/12/04 09:40:25;;;;;;;22.17;12.67;;;1.80;99.90;;;;;;6302583;22;20468;-75
2022/12/04 09:43:02;;;;;;;18.30;9.73;;;1.90;99.90;;;;;;6303527;22;20937;-76
2022/12/04 09:45:33;;;;;;;17.57;10.83;;;2.10;99.90;;;;;;6303280;22;20451;-75
2022/12/04 09:48:05;;;;;;;20.13;10.00;;;2.00;99.90;;;;;;6303177;22;20442;-75
2022/12/04 09:50:37;;;;;;;21.50;11.63;;;2.00;99.90;;;;;;6302864;22;20385;-76
2022/12/04 09:53:11;;;;;;;21.43;11.30;;;2.20;99.90;;;;;;6302024;22;20475;-74
2022/12/04 09:55:43;;;;;;;18.37;11.30;;;2.70;99.90;;;;;;6302642;22;20774;-76
2022/12/04 09:58:15;;;;;;;20.87;11.63;;;2.20;99.90;;;;;;6303276;22;20397;-75
2022/12/04 10:00:54;;;;;;;20.03;10.67;;;2.00;99.90;;;;;;6304687;22;20476;-74
2022/12/04 10:03:29;;;;;;;17.67;10.80;;;2.10;99.90;;;;;;6305271;22;20385;-76
2022/12/04 10:06:06;;;;;;;22.70;10.77;;;2.10;99.90;;;;;;6305619;22;20479;-75
2022/12/04 10:08:36;;;;;;;18.33;11.27;;;2.20;99.90;;;;;;6305649;22;21184;-75
2022/12/04 10:11:12;;;;;;;22.73;11.97;;;2.10;99.90;;;;;;6311206;22;20514;-76
2022/12/04 10:14:11;;;;;;;48.43;18.43;;;2.10;99.90;;;;;;6306509;22;21242;-77
2022/12/04 10:16:53;;;;;;;25.60;11.60;;;2.10;99.90;;;;;;6311856;22;21106;-75
2022/12/04 10:19:29;;;;;;;19.47;11.07;;;2.00;99.90;;;;;;6305490;22;20439;-74
2022/12/04 10:22:08;;;;;;;23.33;12.37;;;2.30;99.90;;;;;;6302910;22;20459;-74
2022/12/04 10:24:41;;;;;;;26.03;13.43;;;2.50;99.90;;;;;;6299570;22;20959;-75
2022/12/04 10:27:14;;;;;;;25.27;13.37;;;2.40;99.90;;;;;;6301752;22;20890;-75
2022/12/04 10:29:47;;;;;;;28.63;14.80;;;2.20;99.90;;;;;;6302283;22;20385;-76
2022/12/04 10:32:24;;;;;;;22.63;12.07;;;2.30;99.90;;;;;;6301498;22;20389;-72
2022/12/04 10:34:54;;;;;;;18.30;10.80;;;2.30;99.90;;;;;;6301960;22;20404;-75
2022/12/04 10:37:22;;;;;;;24.70;13.13;;;2.40;99.90;;;;;;6301618;22;20798;-75
2022/12/04 10:39:54;;;;;;;18.53;11.53;;;2.40;99.90;;;;;;6301912;22;20413;-76
2022/12/04 10:42:31;;;;;;;16.47;9.50;;;2.80;99.90;;;;;;6301829;22;20400;-77
2022/12/04 10:44:59;;;;;;;22.10;12.33;;;2.50;99.90;;;;;;6300860;22;20428;-76
2022/12/04 10:47:27;;;;;;;24.00;11.93;;;2.60;99.90;;;;;;6301141;22;20420;-76
2022/12/04 10:50:00;;;;;;;18.53;11.60;;;2.40;99.90;;;;;;6301426;22;20412;-74
2022/12/04 10:52:27;;;;;;;19.20;10.10;;;2.20;99.90;;;;;;6300594;22;21023;-73
2022/12/04 10:57:41;;;;;;;24.40;11.90;;;2.50;99.90;;;;;;6298993;22;20407;-75
2022/12/04 11:00:26;;;;;;;22.00;12.20;;;3.00;99.90;;;;;;6301631;22;20404;-75
2022/12/04 11:02:55;;;;;;;22.57;12.43;;;3.00;99.90;;;;;;6297716;22;20419;-76
2022/12/04 11:05:30;;;;;;;25.30;11.70;;;3.00;99.90;;;;;;6300661;22;20436;-76
2022/12/04 11:07:59;;;;;;;18.90;11.70;;;3.60;99.90;;;;;;6301006;22;20424;-75
2022/12/04 11:10:33;;;;;;;21.30;13.50;;;3.60;99.90;;;;;;6300383;22;20432;-75
2022/12/04 11:13:02;;;;;;;24.57;12.10;;;3.10;99.90;;;;;;6301118;22;20460;-76
2022/12/04 11:15:30;;;;;;;22.10;12.57;;;3.00;99.90;;;;;;6302348;22;20404;-75
2022/12/04 11:18:08;;;;;;;22.70;12.00;;;3.00;99.90;;;;;;6301100;22;20905;-76
2022/12/04 11:20:41;;;;;;;21.00;11.33;;;2.90;99.90;;;;;;6300995;22;20776;-76
2022/12/04 11:23:16;;;;;;;23.30;12.63;;;2.70;99.90;;;;;;6301100;22;20380;-76
2022/12/04 11:25:46;;;;;;;17.33;11.07;;;2.80;99.90;;;;;;6300477;22;20412;-74
2022/12/04 11:28:17;;;;;;;21.80;12.47;;;2.60;99.90;;;;;;6301085;22;20427;-76
2022/12/04 11:30:50;;;;;;;29.57;12.83;;;2.60;99.90;;;;;;6300708;22;20426;-74
2022/12/04 11:33:23;;;;;;;27.23;13.70;;;2.60;99.90;;;;;;6300403;22;20506;-76
2022/12/04 11:35:54;;;;;;;24.10;12.43;;;2.50;99.90;;;;;;6301388;22;20453;-77
2022/12/04 11:38:25;;;;;;;22.67;12.20;;;2.60;99.90;;;;;;6300125;22;20443;-76
2022/12/04 11:40:55;;;;;;;23.90;13.30;;;3.40;99.90;;;;;;6300701;22;20404;-76
2022/12/04 11:43:24;;;;;;;24.27;12.50;;;3.80;99.90;;;;;;6300339;22;20462;-75
2022/12/04 11:45:58;;;;;;;20.17;11.47;;;3.60;99.90;;;;;;6301220;22;20486;-77
2022/12/04 11:48:26;;;;;;;18.50;10.67;;;3.70;99.90;;;;;;6300093;22;20396;-76
2022/12/04 11:51:03;;;;;;;18.23;12.13;;;3.30;99.90;;;;;;6300430;22;20872;-76
2022/12/04 11:53:43;;;;;;;22.20;12.03;;;3.20;99.90;;;;;;6300129;22;20436;-75
2022/12/04 11:56:19;;;;;;;17.40;10.07;;;3.20;99.90;;;;;;6302597;22;20402;-77
2022/12/04 11:59:31;;;;;;;20.13;10.80;;;3.10;99.90;;;;;;6302602;22;20392;-76
2022/12/04 12:02:18;;;;;;;17.70;9.50;;;3.00;99.90;;;;;;6144362;23;20421;-75
2022/12/04 12:05:06;;;;;;;19.20;11.97;;;2.80;99.90;;;;;;6303126;22;20436;-77
2022/12/04 12:07:42;;;;;;;21.07;12.30;;;2.80;99.90;;;;;;6302060;22;20581;-78
2022/12/04 12:10:16;;;;;;;19.43;12.63;;;2.90;99.90;;;;;;6302672;22;20427;-76
2022/12/04 12:12:55;;;;;;;20.33;11.97;;;3.00;99.90;;;;;;6301740;22;20392;-76
2022/12/04 12:15:31;;;;;;;19.77;11.87;;;3.00;99.90;;;;;;6302733;22;20443;-76
2022/12/04 12:18:17;;;;;;;19.30;11.07;;;3.00;99.90;;;;;;6302944;22;20478;-76
2022/12/04 12:21:04;;;;;;;17.40;10.77;;;3.30;99.90;;;;;;6303312;22;20735;-89
2022/12/04 12:23:49;;;;;;;20.13;12.60;;;3.00;99.90;;;;;;6303567;22;20411;-89
2022/12/04 12:26:18;;;;;;;25.20;11.80;;;3.00;99.90;;;;;;6303059;22;20793;-88
2022/12/04 12:29:02;;;;;;;16.33;10.13;;;3.00;99.90;;;;;;6303361;22;20450;-89
2022/12/04 12:31:51;;;;;;;19.40;11.20;;;2.90;99.90;;;;;;6304353;22;20480;-86
2022/12/04 12:34:29;;;;;;;17.90;10.80;;;3.10;99.90;;;;;;6303474;22;20515;-85
2022/12/04 12:37:00;;;;;;;18.47;11.47;;;3.00;99.90;;;;;;6303107;22;20503;-89
2022/12/04 12:39:35;;;;;;;17.40;10.60;;;3.10;99.90;;;;;;6304651;22;20420;-86
2022/12/04 12:42:02;;;;;;;22.70;12.43;;;3.00;99.90;;;;;;6309975;22;20384;-83
2022/12/04 12:44:44;;;;;;;22.40;11.87;;;2.50;99.90;;;;;;6326849;22;20412;-82
2022/12/04 12:47:17;;;;;;;24.87;12.30;;;2.30;99.90;;;;;;6306200;22;20389;-81
2022/12/04 12:49:50;;;;;;;21.47;12.70;;;2.20;99.90;;;;;;6303788;22;20514;-81
2022/12/04 12:52:30;;;;;;;20.03;12.43;;;2.40;99.90;;;;;;6301480;22;20476;-76
2022/12/04 12:57:49;;;;;;;22.93;14.27;;;2.70;99.90;;;;;;6300686;22;20925;-83
2022/12/04 13:00:20;;;;;;;22.73;13.37;;;2.90;99.90;;;;;;6300661;22;20866;-87
2022/12/04 13:02:56;;;;;;;18.73;11.83;;;2.70;99.90;;;;;;6302240;22;20393;-91
2022/12/04 13:05:30;;;;;;;27.07;12.60;;;2.80;99.90;;;;;;6303207;22;21053;-91
2022/12/04 13:08:05;;;;;;;22.70;12.20;;;2.90;99.90;;;;;;6302888;22;20417;-90
2022/12/04 13:10:40;;;;;;;20.27;12.63;;;2.90;99.90;;;;;;6302162;22;20455;-88
2022/12/04 13:18:41;;;;;;;25.23;14.27;;;2.70;99.90;;;;;;6270005;22;20872;-71
2022/12/04 13:21:37;;;;;;;33.40;18.33;;;2.80;99.90;;;;;;6267658;22;20489;-89
2022/12/04 13:27:37;;;;;;;29.20;17.17;;;3.10;99.90;;;;;;6267409;22;20388;-85
2022/12/04 13:30:13;;;;;;;24.53;13.57;;;3.30;99.90;;;;;;6269741;22;20488;-89
2022/12/04 13:33:16;;;;;;;21.23;13.20;;;3.20;99.90;;;;;;6269505;22;20422;-86
2022/12/04 13:36:00;;;;;;;27.47;12.63;;;3.10;99.90;;;;;;6267603;22;20491;-86
2022/12/04 13:38:35;;;;;;;27.53;12.40;;;3.10;99.90;;;;;;6270594;22;20433;-85
2022/12/04 13:41:06;;;;;;;20.33;12.90;;;3.00;99.90;;;;;;6267119;22;20415;-87
2022/12/04 13:43:44;;;;;;;27.27;13.23;;;3.10;99.90;;;;;;6267425;22;20421;-86
2022/12/04 13:46:26;;;;;;;23.27;13.30;;;3.00;99.90;;;;;;6267714;22;20409;-88
2022/12/04 13:48:54;;;;;;;19.80;12.10;;;2.80;99.90;;;;;;6268431;22;20533;-86
2022/12/04 13:51:42;;;;;;;26.83;13.63;;;3.50;99.90;;;;;;6269024;22;20468;-89
2022/12/04 13:54:26;;;;;;;26.07;12.93;;;2.90;99.90;;;;;;6267240;22;20495;-87
2022/12/04 13:57:16;;;;;;;19.70;12.47;;;2.90;99.90;;;;;;6270483;22;20480;-86
2022/12/04 13:59:44;;;;;;;25.07;13.67;;;3.00;99.90;;;;;;6277616;22;20489;-86
2022/12/04 14:05:41;;;;;;;26.57;14.80;;;2.70;99.90;;;;;;6270957;22;20491;-88
2022/12/04 14:08:23;;;;;;;27.30;13.67;;;2.70;99.90;;;;;;6270635;22;20878;-85
2022/12/04 14:11:00;;;;;;;23.30;13.20;;;2.70;99.90;;;;;;6291676;22;20518;-85
2022/12/04 14:13:34;;;;;;;22.10;13.30;;;2.90;99.90;;;;;;6298410;22;20396;-85
2022/12/04 14:16:06;;;;;;;19.47;13.27;;;2.90;99.90;;;;;;6300320;22;20432;-85
2022/12/04 14:18:33;;;;;;;24.10;12.83;;;2.90;99.90;;;;;;6303687;22;20468;-89
2022/12/04 14:21:03;;;;;;;22.63;12.30;;;3.00;99.90;;;;;;6313020;22;20906;-91
2022/12/04 14:23:36;;;;;;;23.40;14.37;;;3.00;99.90;;;;;;6310069;22;20468;-69
2022/12/04 14:26:05;;;;;;;29.10;15.33;;;3.00;99.90;;;;;;6297583;22;20424;-69
2022/12/04 14:28:53;;;;;;;22.40;11.93;;;3.00;99.90;;;;;;6300355;22;20451;-91
2022/12/04 14:31:29;;;;;;;26.70;13.40;;;3.30;99.90;;;;;;6308255;22;20416;-91
2022/12/04 15:18:59;;;;;;;41.70;21.27;;;2.30;99.90;;;;;;6260420;22;20504;-79
2022/12/04 15:21:35;;;;;;;43.07;21.10;;;2.40;99.90;;;;;;6262059;23;20405;-80
2022/12/04 15:24:08;;;;;;;35.33;19.47;;;2.30;99.90;;;;;;6262612;23;20448;-80
2022/12/04 15:26:39;;;;;;;37.83;18.97;;;2.20;99.90;;;;;;6262392;23;20405;-80
2022/12/04 15:29:08;;;;;;;38.40;20.70;;;3.10;99.90;;;;;;6259397;23;20473;-80
2022/12/04 15:31:40;;;;;;;44.57;24.13;;;2.30;99.90;;;;;;6259633;22;20973;-79
2022/12/04 15:34:14;;;;;;;40.27;24.37;;;2.10;99.90;;;;;;6260129;23;20456;-80
2022/12/04 18:28:51;;;;;;;29.87;15.77;;;1.60;99.90;;;;;;6270298;22;20492;-77
2022/12/04 18:31:19;;;;;;;33.90;13.97;;;1.70;99.90;;;;;;6268564;22;20420;-77
2022/12/04 18:33:47;;;;;;;30.23;15.20;;;1.00;99.90;;;;;;6267697;22;20408;-76
2022/12/04 18:36:17;;;;;;;28.27;15.37;;;1.70;99.90;;;;;;6263751;22;20926;-78
2022/12/04 18:39:05;;;;;;;31.97;16.13;;;1.80;99.90;;;;;;6268572;22;20750;-75
2022/12/04 18:41:32;;;;;;;32.67;16.13;;;1.60;99.90;;;;;;6265898;22;20500;-74
2022/12/04 18:44:01;;;;;;;34.27;16.27;;;1.70;99.90;;;;;;6266708;22;20694;-75
2022/12/04 18:46:29;;;;;;;26.87;13.60;;;1.60;99.90;;;;;;6264709;22;20448;-74
2022/12/04 18:48:58;;;;;;;27.93;14.33;;;1.60;99.90;;;;;;6265280;22;20524;-75
2022/12/04 18:51:27;;;;;;;32.10;16.70;;;1.60;99.90;;;;;;6266475;22;20448;-74
2022/12/04 18:53:57;;;;;;;28.00;12.50;;;1.60;99.90;;;;;;6266444;22;20445;-75
2022/12/04 18:56:25;;;;;;;23.07;12.67;;;1.60;99.90;;;;;;6266764;22;20593;-74
2022/12/04 18:58:57;;;;;;;24.30;13.27;;;1.60;99.90;;;;;;6266647;22;20416;-75
2022/12/04 19:01:26;;;;;;;25.00;11.57;;;1.60;99.90;;;;;;6267032;22;20400;-76
2022/12/04 19:06:40;;;;;;;23.13;13.40;;;1.70;99.90;;;;;;6255781;22;20432;-76
2022/12/04 19:09:09;;;;;;;26.37;13.20;;;1.60;99.90;;;;;;6268663;22;20405;-76
2022/12/04 19:11:37;;;;;;;29.80;13.43;;;1.60;99.90;;;;;;6296713;22;20408;-76
2022/12/04 19:14:04;;;;;;;27.97;12.20;;;1.60;99.90;;;;;;6300431;22;20411;-76
2022/12/04 19:16:33;;;;;;;22.67;13.10;;;1.60;99.90;;;;;;6298494;22;20452;-78
2022/12/04 19:19:00;;;;;;;25.77;14.10;;;1.70;99.90;;;;;;6298746;22;20450;-75
2022/12/04 19:21:27;;;;;;;22.80;11.20;;;1.60;99.90;;;;;;6298008;22;20770;-76
2022/12/04 19:23:57;;;;;;;23.93;11.53;;;1.60;99.90;;;;;;6297522;22;20469;-76